sensor_id;sensor_type;location;lat;lon;timestamp;pressure;altitude;pressure_sealevel;temperature;humidity
15382;BME280;7789;51.364;12.358;2023-05-20T00:03:31;101097.78;;;14.28;87.51
15382;BME280;7789;51.364;12.358;2023-05-20T00:08:38;101094.59;;;14.25;88.00
15382;BME280;7789;51.364;12.358;2023-05-20T00:13:41;101086.56;;;14.26;88.18
15382;BME280;7789;51.364;12.358;2023-05-20T00:18:46;101080.59;;;14.24;89.04
15382;BME280;7789;51.364;12.358;2023-05-20T00:23:50;101083.13;;;14.26;89.37
15382;BME280;7789;51.364;12.358;2023-05-20T00:28:53;101081.84;;;14.20;89.88
15382;BME280;7789;51.364;12.358;2023-05-20T00:33:58;101074.63;;;14.22;90.24
15382;BME280;7789;51.364;12.358;2023-05-20T00:39:02;101078.25;;;14.21;90.51
15382;BME280;7789;51.364;12.358;2023-05-20T00:44:05;101069.50;;;14.21;91.08
15382;BME280;7789;51.364;12.358;2023-05-20T00:49:11;101077.38;;;14.21;91.91
15382;BME280;7789;51.364;12.358;2023-05-20T00:54:15;101072.28;;;14.19;92.25
15382;BME280;7789;51.364;12.358;2023-05-20T00:59:18;101077.00;;;14.25;92.13
15382;BME280;7789;51.364;12.358;2023-05-20T01:04:25;101081.56;;;14.23;93.07
15382;BME280;7789;51.364;12.358;2023-05-20T01:09:29;101069.25;;;14.24;93.35
15382;BME280;7789;51.364;12.358;2023-05-20T01:14:36;101079.63;;;14.25;94.11
15382;BME280;7789;51.364;12.358;2023-05-20T01:19:44;101069.97;;;14.26;94.23
15382;BME280;7789;51.364;12.358;2023-05-20T01:24:50;101074.38;;;14.25;94.88
15382;BME280;7789;51.364;12.358;2023-05-20T01:29:54;101069.97;;;14.26;95.30
15382;BME280;7789;51.364;12.358;2023-05-20T01:34:58;101066.63;;;14.24;95.99
15382;BME280;7789;51.364;12.358;2023-05-20T01:40:06;101066.22;;;14.28;96.14
15382;BME280;7789;51.364;12.358;2023-05-20T01:45:10;101060.41;;;14.25;96.53
15382;BME280;7789;51.364;12.358;2023-05-20T01:50:13;101064.13;;;14.22;97.45
15382;BME280;7789;51.364;12.358;2023-05-20T01:55:18;101070.09;;;14.24;97.44
15382;BME280;7789;51.364;12.358;2023-05-20T02:00:26;101064.56;;;14.27;97.84
15382;BME280;7789;51.364;12.358;2023-05-20T02:05:29;101060.84;;;14.30;97.56
15382;BME280;7789;51.364;12.358;2023-05-20T02:10:36;101065.97;;;14.31;97.58
15382;BME280;7789;51.364;12.358;2023-05-20T02:15:40;101068.84;;;14.28;97.93
15382;BME280;7789;51.364;12.358;2023-05-20T02:20:43;101060.13;;;14.28;98.37
15382;BME280;7789;51.364;12.358;2023-05-20T02:25:48;101053.06;;;14.28;98.80
15382;BME280;7789;51.364;12.358;2023-05-20T02:30:52;101060.25;;;14.26;99.51
15382;BME280;7789;51.364;12.358;2023-05-20T02:35:56;101055.97;;;14.25;99.23
15382;BME280;7789;51.364;12.358;2023-05-20T02:41:01;101058.59;;;14.25;99.70
15382;BME280;7789;51.364;12.358;2023-05-20T02:46:05;101063.75;;;14.27;99.65
15382;BME280;7789;51.364;12.358;2023-05-20T02:51:08;101070.78;;;14.26;99.97
15382;BME280;7789;51.364;12.358;2023-05-20T02:56:13;101059.44;;;14.26;100.00
15382;BME280;7789;51.364;12.358;2023-05-20T03:01:17;101060.78;;;14.20;100.00
15382;BME280;7789;51.364;12.358;2023-05-20T03:06:20;101065.09;;;14.21;100.00
15382;BME280;7789;51.364;12.358;2023-05-20T03:11:25;101055.66;;;14.19;100.00
15382;BME280;7789;51.364;12.358;2023-05-20T03:16:28;101057.31;;;14.20;100.00
15382;BME280;7789;51.364;12.358;2023-05-20T03:21:31;101054.22;;;14.15;100.00
15382;BME280;7789;51.364;12.358;2023-05-20T03:26:36;101055.72;;;14.08;100.00
15382;BME280;7789;51.364;12.358;2023-05-20T03:31:44;101059.16;;;14.08;100.00
15382;BME280;7789;51.364;12.358;2023-05-20T03:36:49;101062.66;;;14.09;100.00
15382;BME280;7789;51.364;12.358;2023-05-20T03:41:54;101050.66;;;14.16;100.00
15382;BME280;7789;51.364;12.358;2023-05-20T03:46:57;101054.84;;;14.18;100.00
15382;BME280;7789;51.364;12.358;2023-05-20T03:52:01;101047.75;;;14.19;100.00
15382;BME280;7789;51.364;12.358;2023-05-20T03:57:06;101053.28;;;14.16;100.00
15382;BME280;7789;51.364;12.358;2023-05-20T04:02:11;101050.06;;;14.12;100.00
15382;BME280;7789;51.364;12.358;2023-05-20T04:07:14;101055.66;;;14.19;100.00
15382;BME280;7789;51.364;12.358;2023-05-20T04:12:19;101062.25;;;14.13;100.00
15382;BME280;7789;51.364;12.358;2023-05-20T04:17:22;101055.31;;;14.12;100.00
15382;BME280;7789;51.364;12.358;2023-05-20T04:22:26;101068.22;;;14.15;100.00
15382;BME280;7789;51.364;12.358;2023-05-20T04:27:30;101065.28;;;14.09;100.00
15382;BME280;7789;51.364;12.358;2023-05-20T04:32:35;101058.22;;;14.09;100.00
15382;BME280;7789;51.364;12.358;2023-05-20T04:37:39;101055.91;;;14.16;100.00
15382;BME280;7789;51.364;12.358;2023-05-20T04:42:46;101063.44;;;14.20;100.00
15382;BME280;7789;51.364;12.358;2023-05-20T04:47:49;101053.22;;;14.27;100.00
15382;BME280;7789;51.364;12.358;2023-05-20T04:52:54;101080.91;;;14.31;100.00
15382;BME280;7789;51.364;12.358;2023-05-20T04:57:58;101083.97;;;14.36;100.00
15382;BME280;7789;51.364;12.358;2023-05-20T05:03:02;101097.16;;;14.45;100.00
15382;BME280;7789;51.364;12.358;2023-05-20T05:08:05;101081.81;;;14.41;100.00
15382;BME280;7789;51.364;12.358;2023-05-20T05:13:10;101074.44;;;14.44;100.00
15382;BME280;7789;51.364;12.358;2023-05-20T05:18:13;101076.69;;;14.49;100.00
15382;BME280;7789;51.364;12.358;2023-05-20T05:23:20;101074.50;;;14.54;100.00
15382;BME280;7789;51.364;12.358;2023-05-20T05:28:24;101077.69;;;14.57;100.00
15382;BME280;7789;51.364;12.358;2023-05-20T05:33:29;101063.56;;;14.58;100.00
15382;BME280;7789;51.364;12.358;2023-05-20T05:38:38;101051.31;;;14.78;100.00
15382;BME280;7789;51.364;12.358;2023-05-20T05:43:43;101044.41;;;14.95;100.00
15382;BME280;7789;51.364;12.358;2023-05-20T05:48:49;101041.69;;;15.35;98.32
15382;BME280;7789;51.364;12.358;2023-05-20T05:53:52;101039.06;;;15.44;98.05
15382;BME280;7789;51.364;12.358;2023-05-20T05:58:58;101034.47;;;15.56;95.86
15382;BME280;7789;51.364;12.358;2023-05-20T06:04:01;101050.38;;;15.64;95.59
15382;BME280;7789;51.364;12.358;2023-05-20T06:09:08;101045.97;;;15.64;95.59
15382;BME280;7789;51.364;12.358;2023-05-20T06:14:15;101040.72;;;15.55;95.42
15382;BME280;7789;51.364;12.358;2023-05-20T06:19:22;101042.78;;;15.51;95.65
15382;BME280;7789;51.364;12.358;2023-05-20T06:24:26;101033.91;;;15.52;95.29
15382;BME280;7789;51.364;12.358;2023-05-20T06:29:33;101036.38;;;15.73;93.99
15382;BME280;7789;51.364;12.358;2023-05-20T06:34:36;101048.88;;;15.61;94.41
15382;BME280;7789;51.364;12.358;2023-05-20T06:39:39;101047.91;;;15.62;94.31
15382;BME280;7789;51.364;12.358;2023-05-20T06:44:45;101059.56;;;15.50;94.88
15382;BME280;7789;51.364;12.358;2023-05-20T06:49:48;101045.03;;;15.37;94.93
15382;BME280;7789;51.364;12.358;2023-05-20T06:54:52;101039.59;;;15.48;95.07
15382;BME280;7789;51.364;12.358;2023-05-20T06:59:56;101036.84;;;15.40;95.47
15382;BME280;7789;51.364;12.358;2023-05-20T07:05:00;101034.19;;;15.40;95.85
15382;BME280;7789;51.364;12.358;2023-05-20T07:10:04;101032.25;;;15.32;96.87
15382;BME280;7789;51.364;12.358;2023-05-20T07:15:10;101033.22;;;15.31;96.75
15382;BME280;7789;51.364;12.358;2023-05-20T07:20:14;101029.91;;;15.29;96.96
15382;BME280;7789;51.364;12.358;2023-05-20T07:25:17;101022.53;;;15.23;97.51
15382;BME280;7789;51.364;12.358;2023-05-20T07:30:22;101009.66;;;15.30;97.62
15382;BME280;7789;51.364;12.358;2023-05-20T07:35:25;100993.97;;;15.38;97.58
15382;BME280;7789;51.364;12.358;2023-05-20T07:40:28;101003.81;;;15.45;97.14
15382;BME280;7789;51.364;12.358;2023-05-20T07:45:33;101004.63;;;15.55;96.82
15382;BME280;7789;51.364;12.358;2023-05-20T07:50:37;100993.38;;;15.63;96.37
15382;BME280;7789;51.364;12.358;2023-05-20T07:55:41;100999.03;;;15.77;96.01
15382;BME280;7789;51.364;12.358;2023-05-20T08:00:45;100996.78;;;15.92;95.07
15382;BME280;7789;51.364;12.358;2023-05-20T08:05:48;101005.88;;;16.07;93.77
15382;BME280;7789;51.364;12.358;2023-05-20T08:10:52;100998.06;;;16.15;92.96
15382;BME280;7789;51.364;12.358;2023-05-20T08:15:56;100987.72;;;16.31;92.39
15382;BME280;7789;51.364;12.358;2023-05-20T08:21:00;100990.28;;;16.50;91.66
15382;BME280;7789;51.364;12.358;2023-05-20T08:26:03;100983.75;;;16.54;90.59
15382;BME280;7789;51.364;12.358;2023-05-20T08:31:08;100987.47;;;16.78;90.13
15382;BME280;7789;51.364;12.358;2023-05-20T08:36:11;100996.53;;;16.76;89.17
15382;BME280;7789;51.364;12.358;2023-05-20T08:41:14;100978.41;;;16.98;88.33
15382;BME280;7789;51.364;12.358;2023-05-20T08:46:20;100980.50;;;17.29;85.25
15382;BME280;7789;51.364;12.358;2023-05-20T08:51:28;100964.38;;;17.83;83.59
15382;BME280;7789;51.364;12.358;2023-05-20T08:56:33;100964.38;;;18.17;80.55
15382;BME280;7789;51.364;12.358;2023-05-20T09:01:40;100959.25;;;18.15;80.20
15382;BME280;7789;51.364;12.358;2023-05-20T09:06:45;100971.78;;;18.05;79.74
15382;BME280;7789;51.364;12.358;2023-05-20T09:11:49;100956.13;;;18.20;79.41
15382;BME280;7789;51.364;12.358;2023-05-20T09:16:54;100956.44;;;18.17;79.40
15382;BME280;7789;51.364;12.358;2023-05-20T09:21:57;100952.16;;;18.24;79.28
15382;BME280;7789;51.364;12.358;2023-05-20T09:27:01;100950.06;;;18.35;78.11
15382;BME280;7789;51.364;12.358;2023-05-20T09:32:06;100949.00;;;18.54;77.66
15382;BME280;7789;51.364;12.358;2023-05-20T09:37:10;100959.47;;;18.87;76.24
15382;BME280;7789;51.364;12.358;2023-05-20T09:42:17;100937.75;;;18.68;76.35
15382;BME280;7789;51.364;12.358;2023-05-20T09:47:24;100936.91;;;18.67;76.58
15382;BME280;7789;51.364;12.358;2023-05-20T09:52:29;100949.78;;;18.54;76.01
15382;BME280;7789;51.364;12.358;2023-05-20T09:57:33;100920.03;;;18.68;76.31
15382;BME280;7789;51.364;12.358;2023-05-20T10:02:40;100909.78;;;18.89;75.72
15382;BME280;7789;51.364;12.358;2023-05-20T10:08:13;100911.28;;;19.15;74.53
15382;BME280;7789;51.364;12.358;2023-05-20T10:13:37;100897.53;;;19.36;74.53
15382;BME280;7789;51.364;12.358;2023-05-20T10:18:53;100893.78;;;19.69;73.66
15382;BME280;7789;51.364;12.358;2023-05-20T10:24:04;100884.91;;;19.92;72.63
15382;BME280;7789;51.364;12.358;2023-05-20T10:29:18;100879.00;;;20.21;71.52
15382;BME280;7789;51.364;12.358;2023-05-20T10:34:25;100877.22;;;20.44;70.61
15382;BME280;7789;51.364;12.358;2023-05-20T10:39:29;100871.69;;;20.23;69.50
15382;BME280;7789;51.364;12.358;2023-05-20T10:44:41;100878.41;;;20.33;69.31
15382;BME280;7789;51.364;12.358;2023-05-20T10:49:46;100876.66;;;20.26;68.96
15382;BME280;7789;51.364;12.358;2023-05-20T10:54:55;100864.44;;;20.39;69.15
15382;BME280;7789;51.364;12.358;2023-05-20T10:59:58;100858.91;;;20.71;68.40
15382;BME280;7789;51.364;12.358;2023-05-20T11:05:10;100874.31;;;20.98;67.23
15382;BME280;7789;51.364;12.358;2023-05-20T11:10:16;100837.66;;;21.08;67.21
15382;BME280;7789;51.364;12.358;2023-05-20T11:15:21;100831.88;;;21.19;65.98
15382;BME280;7789;51.364;12.358;2023-05-20T11:20:29;100828.25;;;21.34;66.27
15382;BME280;7789;51.364;12.358;2023-05-20T11:25:42;100837.78;;;21.14;64.92
15382;BME280;7789;51.364;12.358;2023-05-20T11:30:46;100842.09;;;21.15;65.16
15382;BME280;7789;51.364;12.358;2023-05-20T11:35:55;100853.69;;;21.37;64.13
15382;BME280;7789;51.364;12.358;2023-05-20T11:40:58;100832.34;;;21.08;64.60
15382;BME280;7789;51.364;12.358;2023-05-20T11:46:03;100807.03;;;21.12;64.43
15382;BME280;7789;51.364;12.358;2023-05-20T11:51:09;100832.47;;;21.14;64.10
15382;BME280;7789;51.364;12.358;2023-05-20T11:56:13;100807.56;;;21.07;64.06
15382;BME280;7789;51.364;12.358;2023-05-20T12:01:16;100782.72;;;21.00;64.79
15382;BME280;7789;51.364;12.358;2023-05-20T12:06:25;100784.56;;;21.29;65.08
15382;BME280;7789;51.364;12.358;2023-05-20T12:11:28;100768.34;;;21.38;64.92
15382;BME280;7789;51.364;12.358;2023-05-20T12:16:34;100773.81;;;21.51;64.52
15382;BME280;7789;51.364;12.358;2023-05-20T12:21:39;100758.97;;;21.42;64.89
15382;BME280;7789;51.364;12.358;2023-05-20T12:26:43;100766.47;;;21.53;64.82
15382;BME280;7789;51.364;12.358;2023-05-20T12:31:48;100743.25;;;21.62;64.71
15382;BME280;7789;51.364;12.358;2023-05-20T12:36:55;100753.75;;;21.63;64.47
15382;BME280;7789;51.364;12.358;2023-05-20T12:41:59;100741.06;;;21.51;64.74
15382;BME280;7789;51.364;12.358;2023-05-20T12:47:07;100751.28;;;21.47;64.66
15382;BME280;7789;51.364;12.358;2023-05-20T12:52:12;100746.78;;;21.62;64.85
15382;BME280;7789;51.364;12.358;2023-05-20T12:57:23;100745.66;;;21.57;64.85
15382;BME280;7789;51.364;12.358;2023-05-20T13:02:27;100725.13;;;21.36;64.46
15382;BME280;7789;51.364;12.358;2023-05-20T13:07:32;100727.75;;;21.51;64.84
15382;BME280;7789;51.364;12.358;2023-05-20T13:12:36;100715.47;;;21.50;65.06
15382;BME280;7789;51.364;12.358;2023-05-20T13:17:39;100705.28;;;21.53;65.44
15382;BME280;7789;51.364;12.358;2023-05-20T13:22:45;100697.25;;;21.68;65.54
15382;BME280;7789;51.364;12.358;2023-05-20T13:27:48;100697.97;;;21.76;65.26
15382;BME280;7789;51.364;12.358;2023-05-20T13:32:52;100692.28;;;21.79;65.05
15382;BME280;7789;51.364;12.358;2023-05-20T13:37:57;100691.06;;;21.82;65.26
15382;BME280;7789;51.364;12.358;2023-05-20T13:43:03;100680.38;;;21.96;65.43
15382;BME280;7789;51.364;12.358;2023-05-20T13:48:06;100682.34;;;22.09;64.58
15382;BME280;7789;51.364;12.358;2023-05-20T13:53:11;100669.44;;;22.12;64.51
15382;BME280;7789;51.364;12.358;2023-05-20T13:58:15;100660.19;;;22.08;64.36
15382;BME280;7789;51.364;12.358;2023-05-20T14:03:18;100645.22;;;22.07;64.19
15382;BME280;7789;51.364;12.358;2023-05-20T14:08:26;100652.19;;;22.08;64.58
15382;BME280;7789;51.364;12.358;2023-05-20T14:13:29;100663.13;;;22.13;64.33
15382;BME280;7789;51.364;12.358;2023-05-20T14:18:36;100656.56;;;22.16;64.25
15382;BME280;7789;51.364;12.358;2023-05-20T14:23:40;100636.50;;;22.20;64.22
15382;BME280;7789;51.364;12.358;2023-05-20T14:28:49;100622.56;;;22.39;64.24
15382;BME280;7789;51.364;12.358;2023-05-20T14:33:52;100630.63;;;22.52;63.52
15382;BME280;7789;51.364;12.358;2023-05-20T14:38:58;100605.81;;;22.51;63.57
15382;BME280;7789;51.364;12.358;2023-05-20T14:44:01;100602.75;;;22.54;63.37
15382;BME280;7789;51.364;12.358;2023-05-20T14:49:04;100597.19;;;22.49;63.01
15382;BME280;7789;51.364;12.358;2023-05-20T14:54:12;100592.25;;;22.46;63.33
15382;BME280;7789;51.364;12.358;2023-05-20T14:59:16;100585.09;;;22.47;62.82
15382;BME280;7789;51.364;12.358;2023-05-20T15:04:20;100584.25;;;22.46;62.95
15382;BME280;7789;51.364;12.358;2023-05-20T15:09:29;100583.47;;;22.52;62.97
15382;BME280;7789;51.364;12.358;2023-05-20T15:14:33;100584.09;;;22.54;62.72
15382;BME280;7789;51.364;12.358;2023-05-20T15:19:39;100571.22;;;22.58;62.79
15382;BME280;7789;51.364;12.358;2023-05-20T15:24:44;100572.66;;;22.67;62.77
15382;BME280;7789;51.364;12.358;2023-05-20T15:29:50;100590.34;;;22.74;62.26
15382;BME280;7789;51.364;12.358;2023-05-20T15:34:53;100568.44;;;22.78;62.28
15382;BME280;7789;51.364;12.358;2023-05-20T15:39:58;100562.50;;;22.83;61.33
15382;BME280;7789;51.364;12.358;2023-05-20T15:45:02;100563.31;;;22.83;61.90
15382;BME280;7789;51.364;12.358;2023-05-20T15:50:06;100559.84;;;22.83;61.03
15382;BME280;7789;51.364;12.358;2023-05-20T15:55:20;100561.06;;;22.80;61.52
15382;BME280;7789;51.364;12.358;2023-05-20T16:00:24;100570.50;;;22.83;61.76
15382;BME280;7789;51.364;12.358;2023-05-20T16:05:28;100558.38;;;22.80;61.97
15382;BME280;7789;51.364;12.358;2023-05-20T16:10:33;100558.38;;;22.80;61.49
15382;BME280;7789;51.364;12.358;2023-05-20T16:15:38;100556.56;;;22.81;61.65
15382;BME280;7789;51.364;12.358;2023-05-20T16:20:44;100547.09;;;22.78;61.23
15382;BME280;7789;51.364;12.358;2023-05-20T16:25:49;100553.50;;;22.90;61.42
15382;BME280;7789;51.364;12.358;2023-05-20T16:30:53;100542.03;;;22.96;61.27
15382;BME280;7789;51.364;12.358;2023-05-20T16:35:56;100531.34;;;22.96;61.20
15382;BME280;7789;51.364;12.358;2023-05-20T16:41:01;100526.84;;;22.97;60.66
15382;BME280;7789;51.364;12.358;2023-05-20T16:46:09;100533.00;;;22.97;61.13
15382;BME280;7789;51.364;12.358;2023-05-20T16:51:14;100528.66;;;22.83;61.43
15382;BME280;7789;51.364;12.358;2023-05-20T16:56:21;100522.47;;;22.76;61.81
15382;BME280;7789;51.364;12.358;2023-05-20T17:01:25;100522.00;;;22.67;61.84
15382;BME280;7789;51.364;12.358;2023-05-20T17:06:31;100522.84;;;22.67;62.39
15382;BME280;7789;51.364;12.358;2023-05-20T17:11:36;100526.13;;;22.63;62.25
15382;BME280;7789;51.364;12.358;2023-05-20T17:16:40;100528.56;;;22.58;62.67
15382;BME280;7789;51.364;12.358;2023-05-20T17:21:44;100523.59;;;22.48;62.64
15382;BME280;7789;51.364;12.358;2023-05-20T17:26:53;100526.41;;;22.40;62.95
15382;BME280;7789;51.364;12.358;2023-05-20T17:31:57;100520.78;;;22.29;62.65
15382;BME280;7789;51.364;12.358;2023-05-20T17:37:00;100529.94;;;22.20;62.63
15382;BME280;7789;51.364;12.358;2023-05-20T17:42:11;100538.31;;;22.17;62.80
15382;BME280;7789;51.364;12.358;2023-05-20T17:47:14;100533.56;;;22.06;63.13
15382;BME280;7789;51.364;12.358;2023-05-20T17:52:21;100538.06;;;22.05;63.19
15382;BME280;7789;51.364;12.358;2023-05-20T17:57:26;100552.78;;;22.01;63.36
15382;BME280;7789;51.364;12.358;2023-05-20T18:02:30;100554.19;;;21.97;63.54
15382;BME280;7789;51.364;12.358;2023-05-20T18:07:35;100553.13;;;21.92;64.06
15382;BME280;7789;51.364;12.358;2023-05-20T18:12:40;100562.94;;;21.91;64.10
15382;BME280;7789;51.364;12.358;2023-05-20T18:17:49;100563.50;;;21.87;64.36
15382;BME280;7789;51.364;12.358;2023-05-20T18:22:53;100574.69;;;21.76;64.73
15382;BME280;7789;51.364;12.358;2023-05-20T18:28:03;100582.56;;;21.63;65.02
15382;BME280;7789;51.364;12.358;2023-05-20T18:33:07;100578.47;;;21.46;65.08
15382;BME280;7789;51.364;12.358;2023-05-20T18:38:13;100576.69;;;21.32;65.43
15382;BME280;7789;51.364;12.358;2023-05-20T18:43:18;100587.19;;;21.19;65.88
15382;BME280;7789;51.364;12.358;2023-05-20T18:48:28;100569.47;;;21.05;66.21
15382;BME280;7789;51.364;12.358;2023-05-20T18:53:31;100574.63;;;20.92;66.46
15382;BME280;7789;51.364;12.358;2023-05-20T18:58:45;100584.66;;;20.82;66.90
15382;BME280;7789;51.364;12.358;2023-05-20T19:03:48;100584.97;;;20.72;67.41
15382;BME280;7789;51.364;12.358;2023-05-20T19:08:53;100584.06;;;20.66;67.54
15382;BME280;7789;51.364;12.358;2023-05-20T19:13:59;100607.25;;;20.57;67.86
15382;BME280;7789;51.364;12.358;2023-05-20T19:19:02;100600.09;;;20.43;68.15
15382;BME280;7789;51.364;12.358;2023-05-20T19:24:15;100613.81;;;20.32;68.46
15382;BME280;7789;51.364;12.358;2023-05-20T19:29:22;100620.41;;;20.22;69.19
15382;BME280;7789;51.364;12.358;2023-05-20T19:34:27;100614.53;;;20.12;69.69
15382;BME280;7789;51.364;12.358;2023-05-20T19:39:32;100623.41;;;20.04;70.03
15382;BME280;7789;51.364;12.358;2023-05-20T19:44:37;100624.44;;;19.95;70.76
15382;BME280;7789;51.364;12.358;2023-05-20T19:49:41;100638.78;;;19.86;71.30
15382;BME280;7789;51.364;12.358;2023-05-20T19:54:54;100623.28;;;19.75;72.24
15382;BME280;7789;51.364;12.358;2023-05-20T19:59:59;100620.69;;;19.67;73.09
15382;BME280;7789;51.364;12.358;2023-05-20T20:05:05;100616.28;;;19.60;73.24
15382;BME280;7789;51.364;12.358;2023-05-20T20:10:10;100628.75;;;19.51;74.66
15382;BME280;7789;51.364;12.358;2023-05-20T20:15:17;100623.84;;;19.40;75.11
15382;BME280;7789;51.364;12.358;2023-05-20T20:20:21;100620.78;;;19.29;75.92
15382;BME280;7789;51.364;12.358;2023-05-20T20:25:25;100605.09;;;19.19;76.89
15382;BME280;7789;51.364;12.358;2023-05-20T20:30:30;100603.94;;;19.14;77.62
15382;BME280;7789;51.364;12.358;2023-05-20T20:35:34;100591.53;;;19.06;78.52
15382;BME280;7789;51.364;12.358;2023-05-20T20:40:39;100592.56;;;18.97;79.80
15382;BME280;7789;51.364;12.358;2023-05-20T20:45:45;100594.94;;;18.92;80.25
15382;BME280;7789;51.364;12.358;2023-05-20T20:50:48;100593.31;;;18.83;81.21
15382;BME280;7789;51.364;12.358;2023-05-20T20:55:52;100576.00;;;18.73;82.40
15382;BME280;7789;51.364;12.358;2023-05-20T21:00:59;100587.44;;;18.66;83.60
15382;BME280;7789;51.364;12.358;2023-05-20T21:06:04;100587.94;;;18.61;84.18
15382;BME280;7789;51.364;12.358;2023-05-20T21:11:08;100589.63;;;18.54;85.43
15382;BME280;7789;51.364;12.358;2023-05-20T21:16:12;100574.41;;;18.48;86.38
15382;BME280;7789;51.364;12.358;2023-05-20T21:21:16;100578.75;;;18.41;87.07
15382;BME280;7789;51.364;12.358;2023-05-20T21:26:22;100578.25;;;18.38;87.85
15382;BME280;7789;51.364;12.358;2023-05-20T21:31:27;100579.44;;;18.27;88.97
15382;BME280;7789;51.364;12.358;2023-05-20T21:36:31;100573.63;;;18.24;89.51
15382;BME280;7789;51.364;12.358;2023-05-20T21:41:34;100571.66;;;18.18;90.49
15382;BME280;7789;51.364;12.358;2023-05-20T21:46:39;100579.59;;;18.10;91.63
15382;BME280;7789;51.364;12.358;2023-05-20T21:51:43;100577.31;;;18.07;92.08
15382;BME280;7789;51.364;12.358;2023-05-20T21:56:46;100571.53;;;17.95;93.84
15382;BME280;7789;51.364;12.358;2023-05-20T22:01:51;100572.03;;;17.91;94.40
15382;BME280;7789;51.364;12.358;2023-05-20T22:06:54;100568.06;;;17.87;95.20
15382;BME280;7789;51.364;12.358;2023-05-20T22:11:58;100577.69;;;17.80;96.60
15382;BME280;7789;51.364;12.358;2023-05-20T22:17:03;100571.22;;;17.74;96.97
15382;BME280;7789;51.364;12.358;2023-05-20T22:22:06;100567.94;;;17.72;97.64
15382;BME280;7789;51.364;12.358;2023-05-20T22:27:10;100561.28;;;17.68;98.33
15382;BME280;7789;51.364;12.358;2023-05-20T22:32:14;100550.06;;;17.66;98.44
15382;BME280;7789;51.364;12.358;2023-05-20T22:37:18;100552.38;;;17.61;99.27
15382;BME280;7789;51.364;12.358;2023-05-20T22:42:21;100560.66;;;17.58;99.87
15382;BME280;7789;51.364;12.358;2023-05-20T22:47:26;100544.13;;;17.56;99.80
15382;BME280;7789;51.364;12.358;2023-05-20T22:52:30;100536.03;;;17.50;100.00
15382;BME280;7789;51.364;12.358;2023-05-20T22:57:33;100540.66;;;17.48;100.00
15382;BME280;7789;51.364;12.358;2023-05-20T23:02:39;100531.88;;;17.47;100.00
15382;BME280;7789;51.364;12.358;2023-05-20T23:07:43;100530.06;;;17.40;100.00
15382;BME280;7789;51.364;12.358;2023-05-20T23:12:46;100530.41;;;17.37;100.00
15382;BME280;7789;51.364;12.358;2023-05-20T23:17:51;100527.91;;;17.35;100.00
15382;BME280;7789;51.364;12.358;2023-05-20T23:22:54;100518.47;;;17.33;100.00
15382;BME280;7789;51.364;12.358;2023-05-20T23:27:57;100520.94;;;17.26;100.00
15382;BME280;7789;51.364;12.358;2023-05-20T23:33:02;100523.41;;;17.20;100.00
15382;BME280;7789;51.364;12.358;2023-05-20T23:38:06;100532.81;;;17.14;100.00
15382;BME280;7789;51.364;12.358;2023-05-20T23:43:09;100529.34;;;17.06;100.00
15382;BME280;7789;51.364;12.358;2023-05-20T23:48:14;100532.13;;;16.96;100.00
15382;BME280;7789;51.364;12.358;2023-05-20T23:53:18;100526.34;;;16.93;100.00
15382;BME280;7789;51.364;12.358;2023-05-20T23:58:22;100525.50;;;16.84;100.00
